createdAt,value
2017-09-21T00:01:53.503Z,98644.69
2017-09-21T00:04:21.016Z,98646.88
2017-09-21T00:06:48.516Z,98649.61
2017-09-21T00:09:16.023Z,98646.58
2017-09-21T00:11:43.525Z,98651.16
2017-09-21T00:14:11.047Z,98648.09
2017-09-21T00:16:38.542Z,98649.71
2017-09-21T00:19:06.075Z,98650.97
2017-09-21T00:21:33.588Z,98653.27
2017-09-21T00:24:01.108Z,98651.16
2017-09-21T00:26:28.731Z,98646.21
2017-09-21T00:28:56.241Z,98648.48
2017-09-21T00:31:23.741Z,98648.58
2017-09-21T00:33:51.242Z,98651.27
2017-09-21T00:36:18.744Z,98651.52
2017-09-21T00:38:46.252Z,98651.66
2017-09-21T00:41:13.772Z,98645.52
2017-09-21T00:43:41.284Z,98648.47
2017-09-21T00:46:08.800Z,98639.31
2017-09-21T00:48:36.300Z,98640.31
2017-09-21T00:51:03.810Z,98639.27
2017-09-21T00:53:31.322Z,98639.80
2017-09-21T00:55:58.833Z,98640.91
2017-09-21T00:58:26.348Z,98637.11
2017-09-21T01:00:53.865Z,98637.00
2017-09-21T01:03:21.368Z,98633.28
2017-09-21T01:05:48.920Z,98628.44
2017-09-21T01:08:16.431Z,98629.81
2017-09-21T01:10:43.931Z,98635.05
2017-09-21T01:13:11.444Z,98630.00
2017-09-21T01:15:38.964Z,98640.28
2017-09-21T01:18:06.488Z,98631.30
2017-09-21T01:20:33.996Z,98623.75
2017-09-21T01:23:01.519Z,98627.17
2017-09-21T01:25:29.072Z,98637.45
2017-09-21T01:27:57.443Z,98638.67
2017-09-21T01:30:24.962Z,98638.34
2017-09-21T01:32:52.465Z,98637.48
2017-09-21T01:35:19.982Z,98632.73
2017-09-21T01:37:47.491Z,98629.13
2017-09-21T01:40:15.018Z,98634.53
2017-09-21T01:42:42.515Z,98639.31
2017-09-21T01:45:10.075Z,98631.38
2017-09-21T01:47:37.599Z,98632.46
2017-09-21T01:50:05.117Z,98632.76
2017-09-21T01:52:32.627Z,98628.81
2017-09-21T01:55:00.146Z,98630.78
2017-09-21T01:57:27.667Z,98624.86
2017-09-21T01:59:55.185Z,98628.53
2017-09-21T02:02:22.681Z,98630.80
2017-09-21T02:04:50.197Z,98634.63
2017-09-21T02:07:17.727Z,98631.45
2017-09-21T02:09:45.237Z,98636.87
2017-09-21T02:12:12.743Z,98625.89
2017-09-21T02:14:40.263Z,98629.44
2017-09-21T02:17:07.758Z,98630.33
2017-09-21T02:19:35.264Z,98624.30
2017-09-21T02:22:02.767Z,98630.18
2017-09-21T02:24:30.278Z,98629.73
2017-09-21T02:26:57.804Z,98628.48
2017-09-21T02:29:25.311Z,98624.56
2017-09-21T02:31:52.835Z,98626.41
2017-09-21T02:34:20.340Z,98629.03
2017-09-21T02:36:47.847Z,98628.67
2017-09-21T02:39:15.351Z,98626.53
2017-09-21T02:41:44.715Z,98630.98
2017-09-21T02:44:12.223Z,98627.70
2017-09-21T02:46:39.747Z,98624.11
2017-09-21T02:49:07.270Z,98631.33
2017-09-21T02:51:34.775Z,98632.20
2017-09-21T02:54:02.308Z,98630.15
2017-09-21T02:56:29.885Z,98637.74
2017-09-21T02:58:57.412Z,98635.28
2017-09-21T03:01:24.920Z,98638.78
2017-09-21T03:03:52.440Z,98636.91
2017-09-21T03:06:19.950Z,98636.99
2017-09-21T03:08:47.476Z,98633.53
2017-09-21T03:11:14.993Z,98628.80
2017-09-21T03:13:42.518Z,98630.11
2017-09-21T03:16:10.020Z,98629.25
2017-09-21T03:18:37.524Z,98630.59
2017-09-21T03:21:05.027Z,98626.06
2017-09-21T03:23:32.540Z,98627.17
2017-09-21T03:26:00.044Z,98629.28
2017-09-21T03:28:27.570Z,98626.06
2017-09-21T03:30:55.089Z,98616.10
2017-09-21T03:33:22.609Z,98617.27
2017-09-21T03:35:50.133Z,98617.30
2017-09-21T03:38:17.709Z,98615.75
2017-09-21T03:40:45.227Z,98622.69
2017-09-21T03:43:12.732Z,98617.09
2017-09-21T03:45:40.246Z,98613.44
2017-09-21T03:48:07.749Z,98625.94
2017-09-21T03:50:35.257Z,98613.25
2017-09-21T03:53:02.772Z,98607.22
2017-09-21T03:55:30.303Z,98613.06
2017-09-21T03:57:57.811Z,98605.47
2017-09-21T04:00:25.326Z,98596.98
2017-09-21T04:02:52.839Z,98599.78
2017-09-21T04:05:20.382Z,98598.05
2017-09-21T04:07:47.883Z,98596.41
2017-09-21T04:10:15.397Z,98600.41
2017-09-21T04:12:42.938Z,98597.34
2017-09-21T04:15:10.452Z,98601.16
2017-09-21T04:17:37.963Z,98597.92
2017-09-21T04:20:05.491Z,98594.84
2017-09-21T04:22:33.016Z,98602.13
2017-09-21T04:25:00.526Z,98601.50
2017-09-21T04:27:28.078Z,98600.97
2017-09-21T04:29:55.575Z,98603.73
2017-09-21T04:32:23.097Z,98603.16
2017-09-21T04:41:36.562Z,98602.31
2017-09-21T04:44:04.089Z,98600.41
2017-09-21T04:46:31.607Z,98604.32
2017-09-21T04:48:59.127Z,98604.17
2017-09-21T04:51:26.663Z,98605.80
2017-09-21T04:53:54.247Z,98606.51
2017-09-21T04:56:21.765Z,98609.66
2017-09-21T04:58:49.300Z,98609.00
2017-09-21T05:01:16.836Z,98608.19
2017-09-21T05:03:44.395Z,98602.23
2017-09-21T05:06:11.990Z,98606.91
2017-09-21T05:08:39.502Z,98598.67
2017-09-21T05:11:07.044Z,98599.24
2017-09-21T05:13:34.556Z,98599.36
2017-09-21T05:16:02.066Z,98603.45
2017-09-21T05:18:29.588Z,98601.95
2017-09-21T05:20:57.104Z,98600.78
2017-09-21T05:23:24.611Z,98599.67
2017-09-21T05:25:52.116Z,98607.13
2017-09-21T05:28:19.619Z,98604.81
2017-09-21T05:30:47.146Z,98605.87
2017-09-21T05:33:14.663Z,98599.77
2017-09-21T05:35:42.182Z,98600.74
2017-09-21T05:38:09.703Z,98610.12
2017-09-21T05:40:37.216Z,98606.10
2017-09-21T05:43:04.715Z,98614.11
2017-09-21T05:45:32.227Z,98614.80
2017-09-21T05:47:59.725Z,98605.56
2017-09-21T05:50:27.239Z,98606.31
2017-09-21T05:52:54.740Z,98612.98
2017-09-21T05:55:22.248Z,98618.88
2017-09-21T05:57:49.756Z,98616.57
2017-09-21T06:00:17.271Z,98611.64
2017-09-21T06:02:44.777Z,98620.91
2017-09-21T06:05:12.304Z,98619.81
2017-09-21T06:07:39.936Z,98621.97
2017-09-21T06:10:07.442Z,98626.78
2017-09-21T06:12:34.961Z,98637.88
2017-09-21T06:15:02.663Z,98624.91
2017-09-21T06:17:30.185Z,98623.55
2017-09-21T06:19:57.702Z,98616.62
2017-09-21T06:22:25.246Z,98622.23
2017-09-21T06:24:52.774Z,98618.28
2017-09-21T06:27:20.290Z,98619.63
2017-09-21T06:29:47.814Z,98620.09
2017-09-21T06:32:15.340Z,98617.65
2017-09-21T06:34:42.877Z,98619.63
2017-09-21T06:37:10.540Z,98621.06
2017-09-21T06:39:38.069Z,98618.65
2017-09-21T06:42:05.895Z,98621.55
2017-09-21T06:44:33.407Z,98624.37
2017-09-21T06:47:00.918Z,98620.34
2017-09-21T06:49:28.431Z,98620.81
2017-09-21T06:51:55.944Z,98616.53
2017-09-21T06:54:23.470Z,98619.78
2017-09-21T06:56:51.086Z,98624.06
2017-09-21T06:59:18.626Z,98626.89
2017-09-21T07:01:46.275Z,98621.58
2017-09-21T07:04:13.811Z,98626.11
2017-09-21T07:06:41.326Z,98620.03
2017-09-21T07:09:08.835Z,98618.00
2017-09-21T07:11:36.356Z,98617.91
2017-09-21T07:14:03.895Z,98620.09
2017-09-21T07:16:31.411Z,98619.13
2017-09-21T07:18:58.988Z,98618.05
2017-09-21T07:21:26.512Z,98625.05
2017-09-21T07:23:54.044Z,98624.81
2017-09-21T07:26:21.600Z,98631.58
2017-09-21T07:28:49.129Z,98626.90
2017-09-21T07:31:16.680Z,98617.97
2017-09-21T07:33:44.222Z,98626.41
2017-09-21T07:36:11.740Z,98620.87
2017-09-21T07:38:39.264Z,98624.88
2017-09-21T07:41:06.806Z,98626.09
2017-09-21T07:43:34.324Z,98624.26
2017-09-21T07:46:01.847Z,98623.57
2017-09-21T07:48:29.379Z,98624.13
2017-09-21T07:50:56.911Z,98620.83
2017-09-21T07:53:24.435Z,98621.95
2017-09-21T07:55:51.976Z,98630.03
2017-09-21T07:58:19.481Z,98631.47
2017-09-21T08:00:46.988Z,98622.78
2017-09-21T08:03:14.494Z,98626.89
2017-09-21T08:05:42.023Z,98621.13
2017-09-21T08:08:09.537Z,98621.45
2017-09-21T08:10:37.066Z,98619.63
2017-09-21T08:13:04.605Z,98620.03
2017-09-21T08:15:32.172Z,98626.50
2017-09-21T08:17:59.692Z,98626.98
2017-09-21T08:20:27.213Z,98620.84
2017-09-21T08:22:54.733Z,98626.75
2017-09-21T08:25:22.247Z,98627.72
2017-09-21T08:27:49.769Z,98628.16
2017-09-21T08:30:17.296Z,98624.80
2017-09-21T08:32:44.827Z,98629.31
2017-09-21T08:35:12.357Z,98619.31
2017-09-21T08:37:39.878Z,98618.84
2017-09-21T08:40:07.416Z,98617.94
2017-09-21T08:42:34.953Z,98631.72
2017-09-21T08:45:02.491Z,98629.23
2017-09-21T08:47:30.031Z,98632.27
2017-09-21T08:49:57.547Z,98623.89
2017-09-21T08:52:25.052Z,98620.98
2017-09-21T08:54:52.598Z,98621.59
2017-09-21T08:57:20.163Z,98621.68
2017-09-21T08:59:47.688Z,98619.66
2017-09-21T09:02:15.212Z,98612.73
2017-09-21T09:04:42.747Z,98613.84
2017-09-21T09:07:10.275Z,98612.47
2017-09-21T09:09:37.785Z,98609.91
2017-09-21T09:12:05.299Z,98615.39
2017-09-21T09:14:33.714Z,98611.00
2017-09-21T09:17:01.255Z,98607.08
2017-09-21T09:19:28.771Z,98609.41
2017-09-21T09:21:56.308Z,98614.02
2017-09-21T09:24:23.850Z,98606.36
2017-09-21T09:26:51.373Z,98605.80
2017-09-21T09:29:18.916Z,98607.68
2017-09-21T09:31:46.424Z,98599.64
2017-09-21T09:34:13.935Z,98607.44
2017-09-21T09:36:41.440Z,98609.61
2017-09-21T09:39:08.956Z,98604.01
2017-09-21T09:41:36.463Z,98603.76
2017-09-21T09:44:03.984Z,98606.59
2017-09-21T09:46:31.491Z,98593.73
2017-09-21T09:48:59.027Z,98593.90
2017-09-21T09:51:26.535Z,98588.62
2017-09-21T09:53:54.060Z,98592.00
2017-09-21T09:56:21.563Z,98587.51
2017-09-21T09:58:49.104Z,98586.66
2017-09-21T10:01:16.626Z,98585.47
2017-09-21T10:03:44.137Z,98583.73
2017-09-21T10:06:11.655Z,98583.84
2017-09-21T10:08:39.190Z,98582.67
2017-09-21T10:11:06.697Z,98577.66
2017-09-21T10:13:34.225Z,98572.01
2017-09-21T10:16:01.742Z,98571.33
2017-09-21T10:18:29.260Z,98564.58
2017-09-21T10:20:56.795Z,98567.03
2017-09-21T10:23:24.326Z,98561.43
2017-09-21T10:25:51.877Z,98560.80
2017-09-21T10:28:19.482Z,98553.64
2017-09-21T10:30:47.034Z,98543.36
2017-09-21T10:33:14.697Z,98554.94
2017-09-21T10:35:42.197Z,98551.80
2017-09-21T10:38:09.707Z,98549.88
2017-09-21T10:40:37.222Z,98552.06
2017-09-21T10:43:04.736Z,98545.25
2017-09-21T10:45:32.256Z,98547.12
2017-09-21T10:47:59.761Z,98547.39
2017-09-21T10:50:27.305Z,98538.80
2017-09-21T10:52:54.830Z,98534.66
2017-09-21T10:55:22.368Z,98533.34
2017-09-21T10:57:49.883Z,98537.78
2017-09-21T11:00:17.403Z,98532.70
2017-09-21T11:02:44.926Z,98531.96
2017-09-21T11:05:12.438Z,98526.07
2017-09-21T11:07:39.964Z,98534.53
2017-09-21T11:10:07.479Z,98528.42
2017-09-21T11:12:34.984Z,98530.03
2017-09-21T11:15:02.498Z,98518.12
2017-09-21T11:17:30.011Z,98518.38
2017-09-21T11:19:57.517Z,98512.95
2017-09-21T11:22:25.026Z,98512.56
2017-09-21T11:24:52.535Z,98513.98
2017-09-21T11:27:20.058Z,98510.66
2017-09-21T11:29:47.570Z,98503.89
2017-09-21T11:32:15.104Z,98497.59
2017-09-21T11:34:42.697Z,98505.65
2017-09-21T11:37:10.242Z,98495.94
2017-09-21T11:39:37.771Z,98494.96
2017-09-21T11:42:05.600Z,98487.89
2017-09-21T11:44:33.237Z,98494.09
2017-09-21T11:47:00.738Z,98487.05
2017-09-21T11:49:28.255Z,98482.12
2017-09-21T11:51:55.763Z,98476.58
2017-09-21T11:54:23.291Z,98472.52
2017-09-21T11:56:50.790Z,98471.34
2017-09-21T11:59:18.309Z,98468.14
2017-09-21T12:01:46.559Z,98466.60
2017-09-21T12:04:14.079Z,98461.23
2017-09-21T12:06:41.593Z,98454.02
2017-09-21T12:09:09.123Z,98448.34
2017-09-21T12:11:36.668Z,98448.06
2017-09-21T12:14:04.188Z,98453.63
2017-09-21T12:16:31.692Z,98445.39
2017-09-21T12:18:59.203Z,98443.19
2017-09-21T12:21:26.704Z,98445.13
2017-09-21T12:23:54.218Z,98447.16
2017-09-21T12:26:21.729Z,98444.55
2017-09-21T12:28:49.254Z,98440.83
2017-09-21T12:31:16.767Z,98432.63
2017-09-21T12:33:44.271Z,98439.60
2017-09-21T12:36:11.812Z,98433.45
2017-09-21T12:38:39.327Z,98429.67
2017-09-21T12:41:06.831Z,98423.92
2017-09-21T12:43:34.379Z,98426.21
2017-09-21T12:46:01.906Z,98412.26
2017-09-21T12:48:29.429Z,98414.01
2017-09-21T12:50:56.957Z,98409.00
2017-09-21T12:53:24.468Z,98405.20
2017-09-21T12:55:52.003Z,98396.81
2017-09-21T12:58:19.507Z,98390.47
2017-09-21T13:00:47.036Z,98395.80
2017-09-21T13:03:14.543Z,98394.61
2017-09-21T13:05:42.075Z,98395.78
2017-09-21T13:08:09.601Z,98385.44
2017-09-21T13:10:37.127Z,98391.38
2017-09-21T13:13:04.633Z,98384.67
2017-09-21T13:15:32.167Z,98387.09
2017-09-21T13:17:59.676Z,98382.31
2017-09-21T13:20:27.200Z,98381.53
2017-09-21T13:22:54.700Z,98382.07
2017-09-21T13:25:22.220Z,98380.46
2017-09-21T13:27:49.733Z,98387.78
2017-09-21T13:30:17.249Z,98385.59
2017-09-21T13:32:44.769Z,98374.67
2017-09-21T13:35:12.309Z,98379.33
2017-09-21T13:37:39.840Z,98371.48
2017-09-21T13:40:07.364Z,98374.08
2017-09-21T13:42:34.878Z,98367.55
2017-09-21T13:45:02.395Z,98364.86
2017-09-21T13:47:38.976Z,98370.36
2017-09-21T13:50:06.508Z,98371.25
2017-09-21T13:52:34.163Z,98372.03
2017-09-21T13:57:45.892Z,98364.06
2017-09-21T14:00:13.419Z,98360.86
2017-09-21T14:02:40.940Z,98364.11
2017-09-21T14:05:08.476Z,98361.34
2017-09-21T14:07:36.012Z,98363.05
2017-09-21T14:10:03.567Z,98352.55
2017-09-21T14:12:31.084Z,98358.77
2017-09-21T14:14:58.613Z,98358.47
2017-09-21T14:17:26.152Z,98356.88
2017-09-21T14:19:53.669Z,98356.30
2017-09-21T14:22:21.192Z,98351.28
2017-09-21T14:24:48.710Z,98356.96
2017-09-21T14:27:16.237Z,98342.39
2017-09-21T14:29:43.758Z,98341.07
2017-09-21T14:32:11.268Z,98339.05
2017-09-21T14:34:38.775Z,98348.27
2017-09-21T14:37:06.287Z,98348.34
2017-09-21T14:39:33.803Z,98345.61
2017-09-21T14:42:01.309Z,98338.85
2017-09-21T14:44:28.939Z,98339.33
2017-09-21T14:46:56.472Z,98337.67
2017-09-21T14:49:23.970Z,98327.91
2017-09-21T14:51:51.488Z,98328.91
2017-09-21T14:54:20.006Z,98327.33
2017-09-21T14:56:47.521Z,98326.34
2017-09-21T14:59:15.052Z,98323.38
2017-09-21T15:01:42.555Z,98324.75
2017-09-21T15:04:10.080Z,98326.52
2017-09-21T15:06:37.588Z,98320.59
2017-09-21T15:09:05.126Z,98325.67
2017-09-21T15:11:32.641Z,98323.42
2017-09-21T15:14:00.146Z,98321.00
2017-09-21T15:16:27.689Z,98316.72
2017-09-21T15:18:55.213Z,98310.23
2017-09-21T15:21:22.728Z,98314.00
2017-09-21T15:23:50.235Z,98313.85
2017-09-21T15:26:17.744Z,98317.64
2017-09-21T15:28:45.279Z,98310.58
2017-09-21T15:31:12.783Z,98318.36
2017-09-21T15:33:40.331Z,98317.58
2017-09-21T15:36:07.931Z,98319.80
2017-09-21T15:38:35.438Z,98322.56
2017-09-21T15:41:03.010Z,98313.56
2017-09-21T15:43:30.522Z,98316.97
2017-09-21T15:45:58.043Z,98314.81
2017-09-21T15:48:25.556Z,98315.67
2017-09-21T15:50:53.080Z,98311.74
2017-09-21T15:53:20.600Z,98313.17
2017-09-21T15:55:48.103Z,98318.39
2017-09-21T15:58:15.626Z,98316.27
2017-09-21T16:00:43.136Z,98313.19
2017-09-21T16:03:10.653Z,98308.44
2017-09-21T16:05:38.172Z,98312.78
2017-09-21T16:08:05.680Z,98310.70
2017-09-21T16:10:33.209Z,98313.56
2017-09-21T16:13:00.719Z,98308.84
2017-09-21T16:15:28.233Z,98308.92
2017-09-21T16:17:55.793Z,98311.92
2017-09-21T16:20:23.293Z,98310.05
2017-09-21T16:22:50.811Z,98309.81
2017-09-21T16:25:18.330Z,98305.22
2017-09-21T16:27:45.885Z,98305.19
2017-09-21T16:30:13.410Z,98306.66
2017-09-21T16:32:41.039Z,98313.26
2017-09-21T16:35:08.540Z,98309.22
2017-09-21T16:37:36.150Z,98304.31
2017-09-21T16:40:03.687Z,98309.20
2017-09-21T16:42:31.212Z,98305.92
2017-09-21T16:44:58.735Z,98305.58
2017-09-21T16:47:26.250Z,98315.48
2017-09-21T16:49:54.086Z,98314.63
2017-09-21T16:52:21.615Z,98316.91
2017-09-21T16:54:49.124Z,98316.14
2017-09-21T16:57:16.654Z,98312.62
2017-09-21T16:59:44.209Z,98311.30
2017-09-21T17:02:11.789Z,98306.73
2017-09-21T17:04:39.313Z,98310.05
2017-09-21T17:07:06.829Z,98306.67
2017-09-21T17:09:34.359Z,98310.53
2017-09-21T17:12:01.891Z,98313.95
2017-09-21T17:14:29.406Z,98308.84
2017-09-21T17:16:56.918Z,98308.95
2017-09-21T17:19:24.460Z,98311.47
2017-09-21T17:21:51.982Z,98315.38
2017-09-21T17:24:19.604Z,98317.26
2017-09-21T17:26:47.155Z,98310.22
2017-09-21T17:29:14.699Z,98313.48
2017-09-21T17:31:42.212Z,98318.81
2017-09-21T17:34:09.732Z,98319.83
2017-09-21T17:36:37.238Z,98320.06
2017-09-21T17:39:04.766Z,98322.92
2017-09-21T17:41:32.410Z,98321.80
2017-09-21T17:43:59.947Z,98328.06
2017-09-21T17:46:27.644Z,98334.25
2017-09-21T17:48:55.180Z,98324.89
2017-09-21T17:51:22.732Z,98328.16
2017-09-21T17:53:50.256Z,98333.45
2017-09-21T17:56:17.762Z,98336.12
2017-09-21T17:58:45.272Z,98340.53
2017-09-21T18:01:12.803Z,98344.05
2017-09-21T18:03:40.327Z,98341.64
2017-09-21T18:06:07.895Z,98347.91
2017-09-21T18:08:35.433Z,98345.13
2017-09-21T18:11:02.932Z,98347.87
2017-09-21T18:13:30.451Z,98353.73
2017-09-21T18:15:57.960Z,98355.77
2017-09-21T18:18:25.466Z,98355.51
2017-09-21T18:20:53.086Z,98352.18
2017-09-21T18:23:20.634Z,98359.77
2017-09-21T18:25:48.155Z,98357.94
2017-09-21T18:28:15.716Z,98359.86
2017-09-21T18:30:43.232Z,98363.55
2017-09-21T18:33:10.771Z,98368.76
2017-09-21T18:35:38.308Z,98369.78
2017-09-21T18:38:05.843Z,98368.55
2017-09-21T18:40:33.362Z,98372.88
2017-09-21T18:43:00.922Z,98380.02
2017-09-21T18:45:28.445Z,98377.80
2017-09-21T18:47:55.978Z,98379.05
2017-09-21T18:50:23.502Z,98380.44
2017-09-21T18:52:51.037Z,98385.06
2017-09-21T18:55:18.536Z,98386.33
2017-09-21T18:57:47.360Z,98393.77
2017-09-21T19:00:14.889Z,98385.03
2017-09-21T19:02:42.426Z,98396.84
2017-09-21T19:05:09.988Z,98394.51
2017-09-21T19:07:37.531Z,98398.20
2017-09-21T19:10:05.210Z,98404.07
2017-09-21T19:12:32.787Z,98391.91
2017-09-21T19:15:00.408Z,98403.44
2017-09-21T19:17:27.922Z,98403.98
2017-09-21T19:19:55.446Z,98401.48
2017-09-21T19:22:22.967Z,98403.58
2017-09-21T19:24:50.490Z,98398.53
2017-09-21T19:27:18.004Z,98406.89
2017-09-21T19:29:45.523Z,98409.05
2017-09-21T19:32:13.057Z,98412.09
2017-09-21T19:34:40.627Z,98410.98
2017-09-21T19:37:08.166Z,98411.30
2017-09-21T19:39:35.680Z,98413.88
2017-09-21T19:42:03.229Z,98412.45
2017-09-21T19:44:31.469Z,98415.02
2017-09-21T19:46:59.499Z,98415.63
2017-09-21T19:49:27.107Z,98412.45
2017-09-21T19:51:54.651Z,98417.55
2017-09-21T19:54:22.177Z,98420.44
2017-09-21T19:56:49.707Z,98412.56
2017-09-21T19:59:17.248Z,98417.36
2017-09-21T20:01:44.764Z,98418.27
2017-09-21T20:04:12.295Z,98409.56
2017-09-21T20:06:39.822Z,98414.38
2017-09-21T20:09:07.363Z,98406.45
2017-09-21T20:11:34.879Z,98411.53
2017-09-21T20:14:02.406Z,98412.24
2017-09-21T20:16:29.927Z,98408.13
2017-09-21T20:18:57.451Z,98408.63
2017-09-21T20:21:24.979Z,98410.80
2017-09-21T20:23:52.511Z,98411.78
2017-09-21T20:26:20.076Z,98412.97
2017-09-21T20:28:47.603Z,98410.83
2017-09-21T20:31:15.118Z,98414.13
2017-09-21T20:33:42.632Z,98415.34
2017-09-21T20:36:10.152Z,98420.11
2017-09-21T20:38:37.665Z,98429.84
2017-09-21T20:41:05.200Z,98427.90
2017-09-21T20:43:32.725Z,98424.80
2017-09-21T20:46:00.258Z,98420.52
2017-09-21T20:48:27.760Z,98424.19
2017-09-21T20:50:55.272Z,98423.73
2017-09-21T20:53:22.778Z,98425.42
2017-09-21T20:55:50.297Z,98419.92
2017-09-21T20:58:17.821Z,98424.30
2017-09-21T21:00:45.340Z,98419.63
2017-09-21T21:03:12.840Z,98420.55
2017-09-21T21:05:40.361Z,98423.93
2017-09-21T21:08:07.890Z,98417.97
2017-09-21T21:10:35.412Z,98416.23
2017-09-21T21:13:02.920Z,98417.88
2017-09-21T21:15:30.422Z,98422.99
2017-09-21T21:17:58.121Z,98418.52
2017-09-21T21:20:25.639Z,98422.64
2017-09-21T21:22:53.218Z,98423.80
2017-09-21T21:25:20.724Z,98422.55
2017-09-21T21:27:48.272Z,98418.27
2017-09-21T21:30:15.778Z,98420.78
2017-09-21T21:32:43.451Z,98422.17
2017-09-21T21:35:11.011Z,98424.98
2017-09-21T21:37:38.526Z,98418.67
2017-09-21T21:40:06.066Z,98427.87
2017-09-21T21:42:33.598Z,98422.48
2017-09-21T21:45:01.118Z,98423.16
2017-09-21T21:47:28.636Z,98413.97
2017-09-21T21:49:56.154Z,98422.75
2017-09-21T21:52:23.668Z,98423.92
2017-09-21T21:54:51.173Z,98424.10
2017-09-21T21:57:18.694Z,98419.40
2017-09-21T21:59:46.217Z,98425.16
2017-09-21T22:02:13.838Z,98424.52
2017-09-21T22:04:41.359Z,98423.39
2017-09-21T22:07:08.867Z,98424.73
2017-09-21T22:09:36.389Z,98429.88
2017-09-21T22:12:03.988Z,98428.80
2017-09-21T22:14:31.532Z,98423.31
2017-09-21T22:16:59.026Z,98424.11
2017-09-21T22:19:26.553Z,98426.80
2017-09-21T22:21:54.067Z,98427.19
2017-09-21T22:24:21.572Z,98429.50
2017-09-21T22:26:49.095Z,98426.80
2017-09-21T22:29:16.586Z,98429.74
2017-09-21T22:32:32.535Z,98427.06
2017-09-21T22:35:00.042Z,98430.97
2017-09-21T22:37:27.556Z,98430.55
2017-09-21T22:39:55.068Z,98429.33
2017-09-21T22:42:22.566Z,98432.04
2017-09-21T22:44:50.071Z,98430.95
2017-09-21T22:47:17.586Z,98425.98
2017-09-21T22:49:45.091Z,98433.52
2017-09-21T22:52:12.613Z,98424.73
2017-09-21T22:54:40.116Z,98436.14
2017-09-21T22:57:07.616Z,98428.91
2017-09-21T22:59:35.130Z,98434.95
2017-09-21T23:02:02.653Z,98441.39
2017-09-21T23:04:30.159Z,98436.16
2017-09-21T23:06:57.681Z,98436.55
2017-09-21T23:09:25.200Z,98438.42
2017-09-21T23:11:52.713Z,98438.20
2017-09-21T23:14:20.230Z,98437.28
2017-09-21T23:16:47.732Z,98444.02
2017-09-21T23:19:15.245Z,98444.97
2017-09-21T23:28:28.527Z,98436.99
2017-09-21T23:30:56.042Z,98443.05
2017-09-21T23:33:23.562Z,98432.30
2017-09-21T23:35:51.107Z,98435.95
2017-09-21T23:38:18.610Z,98433.78
2017-09-21T23:40:46.136Z,98443.20
2017-09-21T23:43:13.647Z,98441.38
2017-09-21T23:45:41.166Z,98440.44
2017-09-21T23:48:08.687Z,98439.64
2017-09-21T23:50:36.195Z,98432.27
2017-09-21T23:53:03.826Z,98438.14
2017-09-21T23:55:31.340Z,98434.76
2017-09-21T23:57:58.868Z,98439.50
